Amboy, Iowa
Current Conditions -  °F | °C
As of 1:15 AM on Saturday 25 Oct 2014 (Local Time) from KTNU Reporting Station
Moderate Fog Moderate Fog  
Wind Chill: 52°   Ceiling: Unl
Heat Index: 52°   Visibility: 0mi
Dew Point: 52°   Wind: 6mph
Humidity: 100%   Direction: 270°W
Pressure: 29.97"   Gusts: NA
Location:  41.7317°N, 93.0122°W
Report Text: KTNU 250615Z AUTO 27005KT M1/4SM FG VV000 11/11 A2997 RMK AO2
Loading
Personal Weather Stations






























Interactive Weather Map
Tropical Storm Tracking
New forecast layout! Learn more

10-Day Weather Forecast

Advertisements
Track Severe Weather on mobile